createdAt,value
2023-11-26T00:01:28.392Z,89.41
2023-11-26T00:03:56.514Z,89.25
2023-11-26T00:06:24.002Z,89.41
2023-11-26T00:08:51.300Z,89.46
2023-11-26T00:11:19.912Z,89.78
2023-11-26T00:13:46.987Z,89.67
2023-11-26T00:16:14.625Z,89.32
2023-11-26T00:18:41.859Z,89.41
2023-11-26T00:21:09.066Z,89.23
2023-11-26T00:23:36.187Z,89.42
2023-11-26T00:26:04.133Z,89.35
2023-11-26T00:28:33.150Z,88.92
2023-11-26T00:31:02.771Z,89.45
2023-11-26T00:33:30.147Z,89.16
2023-11-26T00:35:57.178Z,89.15
2023-11-26T00:38:24.844Z,89.11
2023-11-26T00:40:52.202Z,89.33
2023-11-26T00:43:21.212Z,89.07
2023-11-26T00:45:50.891Z,88.83
2023-11-26T00:48:18.474Z,89.12
2023-11-26T00:50:45.912Z,89.15
2023-11-26T00:53:15.880Z,88.94
2023-11-26T00:55:43.292Z,89.01
2023-11-26T00:58:10.557Z,89.69
2023-11-26T01:00:37.904Z,89.39
2023-11-26T01:03:08.026Z,89.28
2023-11-26T01:05:37.081Z,89.65
2023-11-26T01:08:05.565Z,89.40
2023-11-26T01:10:35.426Z,90.05
2023-11-26T01:13:02.888Z,90.04
2023-11-26T01:15:29.838Z,89.63
2023-11-26T01:17:57.681Z,89.43
2023-11-26T01:20:26.851Z,89.95
2023-11-26T01:22:55.550Z,89.48
2023-11-26T01:25:22.958Z,89.60
2023-11-26T01:27:49.903Z,90.28
2023-11-26T01:30:18.942Z,90.49
2023-11-26T01:32:46.225Z,90.68
2023-11-26T01:35:13.339Z,90.30
2023-11-26T01:37:41.982Z,92.14
2023-11-26T01:40:10.601Z,91.62
2023-11-26T01:42:37.978Z,91.95
2023-11-26T01:45:05.963Z,91.68
2023-11-26T01:47:35.628Z,91.24
2023-11-26T01:50:03.765Z,91.70
2023-11-26T01:52:31.149Z,91.49
2023-11-26T01:55:00.556Z,91.01
2023-11-26T01:57:28.137Z,91.13
2023-11-26T01:59:55.327Z,91.59
2023-11-26T02:02:23.900Z,91.72
2023-11-26T02:04:51.907Z,91.46
2023-11-26T02:07:18.972Z,91.21
2023-11-26T02:09:45.986Z,90.85
2023-11-26T02:12:15.011Z,91.11
2023-11-26T02:14:41.903Z,93.24
2023-11-26T02:17:09.171Z,93.72
2023-11-26T02:19:40.266Z,93.38
2023-11-26T02:22:07.723Z,93.44
2023-11-26T02:24:44.961Z,93.21
2023-11-26T02:27:14.564Z,93.73
2023-11-26T02:29:42.986Z,93.73
2023-11-26T02:32:10.837Z,93.60
2023-11-26T02:34:38.470Z,93.41
2023-11-26T02:37:07.357Z,93.87
2023-11-26T02:39:34.504Z,93.61
2023-11-26T02:42:05.596Z,93.62
2023-11-26T02:44:34.034Z,94.27
2023-11-26T02:47:01.123Z,93.49
2023-11-26T02:49:29.995Z,93.37
2023-11-26T02:51:56.951Z,92.99
2023-11-26T02:54:24.597Z,93.21
2023-11-26T02:56:52.128Z,93.10
2023-11-26T02:59:20.680Z,93.34
2023-11-26T03:01:56.839Z,93.50
2023-11-26T03:04:24.071Z,93.59
2023-11-26T03:06:52.487Z,93.25
2023-11-26T03:09:19.416Z,93.59
2023-11-26T03:11:48.285Z,93.50
2023-11-26T03:14:18.113Z,93.18
2023-11-26T03:16:46.580Z,94.30
2023-11-26T03:19:14.028Z,95.00
2023-11-26T03:21:43.934Z,96.06
2023-11-26T03:24:11.709Z,95.74
2023-11-26T03:26:38.582Z,95.99
2023-11-26T03:29:05.954Z,95.71
2023-11-26T03:31:33.516Z,95.16
2023-11-26T03:34:02.704Z,94.77
2023-11-26T03:36:31.389Z,94.10
2023-11-26T03:38:59.937Z,93.95
2023-11-26T03:41:27.619Z,93.63
2023-11-26T03:43:56.812Z,93.46
2023-11-26T03:46:26.997Z,93.13
2023-11-26T03:48:54.240Z,92.77
2023-11-26T03:51:23.968Z,92.23
2023-11-26T03:53:51.292Z,92.84
2023-11-26T03:56:18.571Z,92.38
2023-11-26T03:58:45.618Z,91.97
2023-11-26T04:01:15.645Z,91.80
2023-11-26T04:03:45.344Z,91.76
2023-11-26T04:06:16.712Z,91.58
2023-11-26T04:08:45.096Z,91.27
2023-11-26T04:11:12.273Z,90.76
2023-11-26T04:13:39.445Z,90.32
2023-11-26T04:16:07.719Z,90.08
2023-11-26T04:18:35.508Z,89.89
2023-11-26T04:21:03.269Z,89.34
2023-11-26T04:23:30.407Z,89.60
2023-11-26T04:25:58.969Z,89.61
2023-11-26T04:28:26.020Z,89.74
2023-11-26T04:30:53.418Z,90.16
2023-11-26T04:33:20.783Z,93.18
2023-11-26T04:35:48.699Z,93.74
2023-11-26T04:38:16.021Z,94.45
2023-11-26T04:40:43.417Z,94.72
2023-11-26T04:43:11.985Z,94.01
2023-11-26T04:45:39.830Z,94.01
2023-11-26T04:48:08.481Z,94.04
2023-11-26T04:50:35.661Z,93.15
2023-11-26T04:53:02.878Z,94.29
2023-11-26T04:55:30.122Z,93.49
2023-11-26T04:57:57.392Z,94.91
2023-11-26T05:00:26.954Z,94.88
2023-11-26T05:02:54.532Z,95.22
2023-11-26T05:05:22.009Z,94.43
2023-11-26T05:07:48.923Z,94.21
2023-11-26T05:10:16.603Z,94.38
2023-11-26T05:12:43.666Z,94.66
2023-11-26T05:15:11.142Z,94.54
2023-11-26T05:17:40.203Z,94.51
2023-11-26T05:20:15.694Z,93.66
2023-11-26T05:22:48.367Z,93.54
2023-11-26T05:25:16.012Z,93.91
2023-11-26T05:27:44.090Z,93.46
2023-11-26T05:30:11.578Z,93.00
2023-11-26T05:32:41.029Z,92.70
2023-11-26T05:35:10.935Z,92.62
2023-11-26T05:37:37.941Z,92.13
2023-11-26T05:40:09.954Z,91.48
2023-11-26T05:42:38.555Z,91.67
2023-11-26T05:45:07.083Z,91.61
2023-11-26T05:47:36.712Z,90.61
2023-11-26T05:50:08.498Z,90.76
2023-11-26T05:52:36.484Z,90.07
2023-11-26T05:55:04.380Z,90.58
2023-11-26T05:57:31.579Z,90.64
2023-11-26T05:59:59.225Z,90.77
2023-11-26T06:02:26.781Z,90.47
2023-11-26T06:04:54.124Z,90.37
2023-11-26T06:07:23.981Z,90.35
2023-11-26T06:09:50.988Z,89.78
2023-11-26T06:12:18.549Z,89.67
2023-11-26T06:14:47.405Z,89.47
2023-11-26T06:17:14.615Z,89.36
2023-11-26T06:19:41.857Z,89.03
2023-11-26T06:22:09.292Z,89.09
2023-11-26T06:24:38.188Z,89.15
2023-11-26T06:27:06.487Z,88.77
2023-11-26T06:29:33.547Z,88.40
2023-11-26T06:32:00.904Z,88.48
2023-11-26T06:34:27.990Z,88.31
2023-11-26T06:36:54.853Z,88.64
2023-11-26T06:39:22.895Z,88.43
2023-11-26T06:41:51.833Z,88.67
2023-11-26T06:44:19.176Z,88.34
2023-11-26T06:46:46.439Z,87.88
2023-11-26T06:49:14.032Z,87.95
2023-11-26T06:51:41.278Z,87.63
2023-11-26T06:54:09.597Z,88.04
2023-11-26T06:56:36.809Z,88.52
2023-11-26T06:59:05.569Z,89.36
2023-11-26T07:01:32.569Z,91.37
2023-11-26T07:03:59.760Z,92.39
2023-11-26T07:06:28.483Z,92.50
2023-11-26T07:08:55.833Z,92.73
2023-11-26T07:11:23.160Z,92.81
2023-11-26T07:13:52.148Z,91.92
2023-11-26T07:16:22.720Z,92.80
2023-11-26T07:18:50.351Z,93.46
2023-11-26T07:21:17.406Z,93.98
2023-11-26T07:23:44.645Z,94.78
2023-11-26T07:26:11.944Z,95.11
2023-11-26T07:28:40.413Z,94.43
2023-11-26T07:31:13.714Z,94.46
2023-11-26T07:33:42.491Z,94.65
2023-11-26T07:36:14.423Z,93.89
2023-11-26T07:38:43.098Z,93.81
2023-11-26T07:41:10.916Z,93.76
2023-11-26T07:43:47.546Z,93.91
2023-11-26T07:46:15.631Z,93.31
2023-11-26T07:48:48.614Z,93.14
2023-11-26T07:51:19.351Z,92.24
2023-11-26T07:53:46.610Z,92.67
2023-11-26T07:56:13.889Z,93.23
2023-11-26T07:58:43.056Z,93.78
2023-11-26T08:01:12.664Z,93.42
2023-11-26T08:03:39.813Z,92.55
2023-11-26T08:06:13.433Z,92.45
2023-11-26T08:08:43.015Z,92.52
2023-11-26T08:11:12.829Z,92.12
2023-11-26T08:13:40.495Z,91.83
2023-11-26T08:16:09.608Z,93.04
2023-11-26T08:18:37.351Z,92.18
2023-11-26T08:21:04.812Z,90.63
2023-11-26T08:23:36.277Z,89.98
2023-11-26T08:26:13.417Z,90.79
2023-11-26T08:28:43.466Z,90.45
2023-11-26T08:31:10.801Z,90.76
2023-11-26T08:33:37.830Z,90.75
2023-11-26T08:36:05.860Z,90.13
2023-11-26T08:38:35.535Z,90.07
2023-11-26T08:41:03.530Z,89.93
2023-11-26T08:43:33.019Z,89.75
2023-11-26T08:45:59.958Z,89.38
2023-11-26T08:48:26.922Z,89.11
2023-11-26T08:50:53.878Z,89.03
2023-11-26T08:53:21.774Z,88.76
2023-11-26T08:55:50.113Z,88.71
2023-11-26T08:58:17.085Z,88.58
2023-11-26T09:00:44.153Z,88.23
2023-11-26T09:03:11.291Z,88.09
2023-11-26T09:05:39.273Z,87.86
2023-11-26T09:08:08.074Z,87.12
2023-11-26T09:10:35.598Z,87.23
2023-11-26T09:13:03.905Z,86.38
2023-11-26T09:15:31.216Z,86.26
2023-11-26T09:18:00.982Z,85.66
2023-11-26T09:20:28.571Z,86.15
2023-11-26T09:22:56.001Z,86.18
2023-11-26T09:25:22.895Z,84.43
2023-11-26T09:27:50.243Z,83.95
2023-11-26T09:30:20.103Z,83.20
2023-11-26T09:32:49.037Z,81.95
2023-11-26T09:35:16.163Z,80.96
2023-11-26T09:37:43.239Z,81.14
2023-11-26T09:40:11.633Z,80.23
2023-11-26T09:42:42.107Z,80.67
2023-11-26T09:45:11.944Z,80.42
2023-11-26T09:47:40.625Z,80.11
2023-11-26T09:50:10.419Z,79.29
2023-11-26T09:52:38.179Z,79.61
2023-11-26T09:55:08.148Z,80.61
2023-11-26T09:57:38.427Z,80.91
2023-11-26T10:00:07.339Z,81.64
2023-11-26T10:02:34.557Z,83.06
2023-11-26T10:05:04.397Z,83.49
2023-11-26T10:07:37.089Z,82.92
2023-11-26T10:10:09.379Z,83.64
2023-11-26T10:12:52.184Z,82.73
2023-11-26T10:15:20.969Z,81.42
2023-11-26T10:18:02.553Z,82.03
2023-11-26T10:20:31.798Z,82.42
2023-11-26T10:22:59.571Z,81.31
2023-11-26T10:25:28.903Z,80.10
2023-11-26T10:27:56.561Z,79.95
2023-11-26T10:30:28.012Z,79.39
2023-11-26T10:33:13.716Z,78.85
2023-11-26T10:35:48.543Z,78.81
2023-11-26T10:38:16.905Z,78.64
2023-11-26T10:40:44.099Z,78.72
2023-11-26T10:43:13.637Z,78.41
2023-11-26T10:45:42.302Z,78.66
2023-11-26T10:48:15.268Z,78.43
2023-11-26T10:50:58.796Z,78.84
2023-11-26T10:53:39.570Z,79.11
2023-11-26T10:56:13.939Z,78.51
2023-11-26T10:58:49.450Z,78.43
2023-11-26T11:01:17.652Z,78.19
2023-11-26T11:03:44.985Z,78.54
2023-11-26T11:06:15.883Z,78.27
2023-11-26T11:08:43.928Z,77.65
2023-11-26T11:11:25.343Z,77.71
2023-11-26T11:13:54.156Z,77.82
2023-11-26T11:16:21.856Z,77.41
2023-11-26T11:18:48.805Z,77.39
2023-11-26T11:21:18.296Z,77.39
2023-11-26T11:23:47.329Z,76.86
2023-11-26T11:26:16.644Z,77.21
2023-11-26T11:28:47.660Z,76.30
2023-11-26T11:31:16.300Z,76.46
2023-11-26T11:34:20.225Z,76.37
2023-11-26T11:36:57.696Z,76.18
2023-11-26T11:39:42.235Z,76.14
2023-11-26T11:42:15.014Z,74.89
2023-11-26T11:44:45.267Z,75.32
2023-11-26T11:47:14.144Z,74.41
2023-11-26T11:50:08.218Z,74.28
2023-11-26T11:52:37.814Z,74.53
2023-11-26T11:55:56.335Z,71.06
2023-11-26T11:58:23.528Z,70.77
2023-11-26T12:00:58.441Z,69.94
2023-11-26T12:03:26.558Z,69.55
2023-11-26T12:05:53.745Z,69.73
2023-11-26T12:08:22.099Z,69.47
2023-11-26T12:10:50.440Z,69.32
2023-11-26T12:13:17.666Z,69.03
2023-11-26T12:15:56.554Z,68.26
2023-11-26T12:18:23.793Z,68.30
2023-11-26T12:20:51.045Z,68.16
2023-11-26T12:23:34.701Z,68.46
2023-11-26T12:26:03.164Z,69.01
2023-11-26T12:28:41.449Z,69.07
2023-11-26T12:31:08.923Z,69.83
2023-11-26T12:33:36.193Z,69.94
2023-11-26T12:36:04.351Z,69.96
2023-11-26T12:38:32.919Z,70.49
2023-11-26T12:41:00.220Z,70.28
2023-11-26T12:43:29.477Z,70.80
2023-11-26T12:46:09.112Z,71.25
2023-11-26T12:48:36.037Z,71.34
2023-11-26T12:51:05.039Z,70.36
2023-11-26T12:53:34.873Z,70.49
2023-11-26T12:56:01.857Z,70.77
2023-11-26T12:58:29.005Z,69.89
2023-11-26T13:00:57.980Z,70.17
2023-11-26T13:03:25.311Z,70.25
2023-11-26T13:05:53.728Z,69.48
2023-11-26T13:08:23.816Z,69.41
2023-11-26T13:10:57.160Z,69.15
2023-11-26T13:13:28.230Z,69.10
2023-11-26T13:15:57.005Z,69.63
2023-11-26T13:18:24.634Z,68.66
2023-11-26T13:20:51.787Z,68.81
2023-11-26T13:23:20.431Z,69.35
2023-11-26T13:25:48.023Z,70.35
2023-11-26T13:28:19.726Z,70.55
2023-11-26T13:30:47.324Z,71.34
2023-11-26T13:33:16.324Z,71.86
2023-11-26T13:35:43.656Z,72.31
2023-11-26T13:38:15.273Z,72.70
2023-11-26T13:40:45.166Z,73.39
2023-11-26T13:43:13.947Z,73.88
2023-11-26T13:45:42.455Z,74.21
2023-11-26T13:48:12.018Z,74.53
2023-11-26T13:50:40.500Z,74.08
2023-11-26T13:53:08.333Z,74.64
2023-11-26T13:55:36.182Z,74.56
2023-11-26T13:58:04.384Z,75.00
2023-11-26T14:00:32.308Z,75.61
2023-11-26T14:03:01.004Z,75.76
2023-11-26T14:05:30.405Z,76.57
2023-11-26T14:07:59.384Z,76.17
2023-11-26T14:10:26.560Z,76.13
2023-11-26T14:12:55.314Z,76.11
2023-11-26T14:15:22.664Z,75.77
2023-11-26T14:17:49.637Z,75.60
2023-11-26T14:20:20.064Z,76.76
2023-11-26T14:22:49.627Z,76.43
2023-11-26T14:25:18.327Z,76.51
2023-11-26T14:27:47.556Z,76.44
2023-11-26T14:30:16.659Z,76.61
2023-11-26T14:32:46.636Z,76.87
2023-11-26T14:35:14.548Z,77.72
2023-11-26T14:37:43.104Z,77.90
2023-11-26T14:40:11.027Z,78.39
2023-11-26T14:42:38.526Z,79.10
2023-11-26T14:45:06.039Z,78.93
2023-11-26T14:47:33.612Z,79.64
2023-11-26T14:50:00.944Z,79.23
2023-11-26T14:52:28.183Z,79.38
2023-11-26T14:54:56.817Z,79.05
2023-11-26T14:57:24.002Z,79.04
2023-11-26T14:59:50.955Z,79.08
2023-11-26T15:02:19.595Z,78.78
2023-11-26T15:04:47.394Z,78.48
2023-11-26T15:07:15.058Z,78.25
2023-11-26T15:09:42.448Z,78.98
2023-11-26T15:12:11.910Z,78.99
2023-11-26T15:14:39.073Z,78.45
2023-11-26T15:17:06.846Z,78.17
2023-11-26T15:19:33.881Z,77.97
2023-11-26T15:22:01.025Z,77.77
2023-11-26T15:24:28.376Z,77.15
2023-11-26T15:26:59.459Z,77.18
2023-11-26T15:29:29.832Z,77.04
2023-11-26T15:32:00.246Z,78.04
2023-11-26T15:34:27.385Z,77.21
2023-11-26T15:36:54.616Z,77.99
2023-11-26T15:39:21.972Z,77.66
2023-11-26T15:41:48.844Z,77.86
2023-11-26T15:44:16.089Z,77.72
2023-11-26T15:46:45.322Z,78.34
2023-11-26T15:49:13.225Z,77.45
2023-11-26T15:51:41.380Z,78.48
2023-11-26T15:54:08.720Z,77.49
2023-11-26T15:56:35.710Z,77.54
2023-11-26T15:59:02.778Z,77.97
2023-11-26T16:01:30.355Z,78.28
2023-11-26T16:03:59.039Z,78.70
2023-11-26T16:06:27.614Z,78.60
2023-11-26T16:08:55.022Z,77.96
2023-11-26T16:11:22.098Z,78.51
2023-11-26T16:13:50.509Z,77.89
2023-11-26T16:16:17.808Z,78.19
2023-11-26T16:18:45.162Z,79.18
2023-11-26T16:21:16.380Z,79.16
2023-11-26T16:23:44.911Z,78.32
2023-11-26T16:26:11.930Z,79.05
2023-11-26T16:28:39.043Z,79.06
2023-11-26T16:31:08.266Z,78.97
2023-11-26T16:33:45.466Z,79.14
2023-11-26T16:36:19.181Z,80.37
2023-11-26T16:38:46.538Z,80.69
2023-11-26T16:41:13.729Z,81.06
2023-11-26T16:43:42.666Z,81.12
2023-11-26T16:46:12.447Z,80.40
2023-11-26T16:48:40.819Z,80.03
2023-11-26T16:51:09.208Z,79.79
2023-11-26T16:53:38.506Z,80.48
2023-11-26T16:56:09.302Z,79.92
2023-11-26T16:58:38.042Z,79.66
2023-11-26T17:01:12.703Z,80.48
2023-11-26T17:03:41.072Z,80.68
2023-11-26T17:06:09.695Z,80.35
2023-11-26T17:08:38.027Z,80.51
2023-11-26T17:11:07.420Z,79.93
2023-11-26T17:13:34.466Z,80.72
2023-11-26T17:16:01.673Z,80.03
2023-11-26T17:18:28.777Z,81.08
2023-11-26T17:20:56.139Z,81.42
2023-11-26T17:23:23.037Z,80.42
2023-11-26T17:25:51.641Z,80.60
2023-11-26T17:28:20.254Z,80.52
2023-11-26T17:30:50.576Z,80.19
2023-11-26T17:33:20.375Z,80.46
2023-11-26T17:35:48.345Z,79.85
2023-11-26T17:38:16.266Z,79.52
2023-11-26T17:40:43.255Z,81.45
2023-11-26T17:43:14.855Z,81.61
2023-11-26T17:45:42.566Z,82.61
2023-11-26T17:48:09.692Z,82.72
2023-11-26T17:50:37.017Z,82.10
2023-11-26T17:53:10.429Z,82.95
2023-11-26T17:55:39.835Z,82.97
2023-11-26T17:58:07.067Z,83.12
2023-11-26T18:00:36.180Z,82.88
2023-11-26T18:03:04.412Z,83.44
2023-11-26T18:05:31.610Z,83.53
2023-11-26T18:07:58.638Z,82.57
2023-11-26T18:10:25.965Z,83.56
2023-11-26T18:12:53.749Z,83.04
2023-11-26T18:15:20.918Z,82.95
2023-11-26T18:17:53.249Z,83.15
2023-11-26T18:20:20.493Z,82.83
2023-11-26T18:22:47.765Z,82.86
2023-11-26T18:25:15.137Z,82.42
2023-11-26T18:27:42.936Z,82.94
2023-11-26T18:30:12.050Z,82.59
2023-11-26T18:32:39.193Z,82.29
2023-11-26T18:35:08.771Z,83.04
2023-11-26T18:37:38.211Z,83.08
2023-11-26T18:40:07.194Z,83.45
2023-11-26T18:42:34.156Z,83.49
2023-11-26T18:45:01.369Z,83.09
2023-11-26T18:47:28.936Z,83.38
2023-11-26T18:49:56.127Z,83.46
2023-11-26T18:52:24.890Z,83.02
2023-11-26T18:54:52.367Z,82.33
2023-11-26T18:57:19.795Z,82.93
2023-11-26T18:59:47.182Z,82.53
2023-11-26T19:02:16.938Z,82.37
2023-11-26T19:04:44.905Z,82.46
2023-11-26T19:07:14.273Z,82.30
2023-11-26T19:09:43.324Z,82.43
2023-11-26T19:12:11.469Z,81.64
2023-11-26T19:14:38.788Z,81.88
2023-11-26T19:17:05.857Z,81.83
2023-11-26T19:19:33.019Z,82.21
2023-11-26T19:22:00.452Z,81.80
2023-11-26T19:24:28.435Z,81.97
2023-11-26T19:26:56.797Z,81.28
2023-11-26T19:29:23.850Z,81.21
2023-11-26T19:31:51.865Z,81.59
2023-11-26T19:34:19.024Z,80.45
2023-11-26T19:36:47.445Z,81.34
2023-11-26T19:39:14.583Z,81.03
2023-11-26T19:41:41.888Z,81.16
2023-11-26T19:44:10.449Z,80.76
2023-11-26T19:46:40.864Z,81.02
2023-11-26T19:49:08.174Z,80.52
2023-11-26T19:51:35.098Z,80.61
2023-11-26T19:54:02.295Z,81.71
2023-11-26T19:56:29.745Z,80.66
2023-11-26T19:58:56.873Z,80.26
2023-11-26T20:01:25.523Z,80.46
2023-11-26T20:03:53.042Z,79.97
2023-11-26T20:06:22.271Z,80.32
2023-11-26T20:08:50.643Z,80.78
2023-11-26T20:11:17.635Z,80.97
2023-11-26T20:13:44.694Z,80.60
2023-11-26T20:16:14.358Z,79.97
2023-11-26T20:18:43.364Z,80.41
2023-11-26T20:21:10.568Z,79.99
2023-11-26T20:23:41.401Z,79.99
2023-11-26T20:26:08.848Z,80.04
2023-11-26T20:28:36.420Z,80.58
2023-11-26T20:31:09.029Z,80.65
2023-11-26T20:33:39.170Z,80.78
2023-11-26T20:36:19.005Z,81.30
2023-11-26T20:38:46.436Z,82.59
2023-11-26T20:41:15.256Z,82.19
2023-11-26T20:43:42.154Z,81.54
2023-11-26T20:46:20.728Z,80.40
2023-11-26T20:48:49.650Z,80.97
2023-11-26T20:51:21.609Z,80.45
2023-11-26T20:53:48.819Z,80.32
2023-11-26T20:56:22.895Z,80.09
2023-11-26T20:58:50.194Z,79.69
2023-11-26T21:01:17.954Z,78.99
2023-11-26T21:03:45.018Z,78.99
2023-11-26T21:06:12.669Z,79.03
2023-11-26T21:08:41.389Z,78.40
2023-11-26T21:11:10.840Z,78.54
2023-11-26T21:13:39.141Z,78.26
2023-11-26T21:16:11.501Z,78.31
2023-11-26T21:18:38.798Z,77.95
2023-11-26T21:21:05.870Z,78.00
2023-11-26T21:23:32.822Z,77.94
2023-11-26T21:26:02.563Z,77.59
2023-11-26T21:28:30.273Z,76.51
2023-11-26T21:30:57.333Z,76.28
2023-11-26T21:33:27.261Z,76.15
2023-11-26T21:35:55.076Z,76.29
2023-11-26T21:38:22.961Z,76.30
2023-11-26T21:41:01.142Z,76.09
2023-11-26T21:43:33.510Z,76.25
2023-11-26T21:46:00.494Z,76.69
2023-11-26T21:48:27.657Z,75.98
2023-11-26T21:50:54.537Z,75.44
2023-11-26T21:53:21.477Z,75.10
2023-11-26T21:55:49.250Z,75.71
2023-11-26T21:58:16.200Z,75.48
2023-11-26T22:00:45.933Z,75.20
2023-11-26T22:03:13.164Z,75.04
2023-11-26T22:05:40.672Z,75.55
2023-11-26T22:08:08.275Z,75.51
2023-11-26T22:10:35.223Z,75.65
2023-11-26T22:13:02.473Z,75.02
2023-11-26T22:15:31.030Z,74.70
2023-11-26T22:17:59.372Z,75.51
2023-11-26T22:20:26.876Z,74.87
2023-11-26T22:22:54.020Z,75.63
2023-11-26T22:25:21.046Z,75.97
2023-11-26T22:27:48.200Z,77.13
2023-11-26T22:30:17.141Z,78.03
2023-11-26T22:32:45.465Z,78.72
2023-11-26T22:35:14.194Z,78.53
2023-11-26T22:37:48.509Z,78.71
2023-11-26T22:40:16.536Z,78.94
2023-11-26T22:42:43.834Z,78.68
2023-11-26T22:45:11.096Z,79.69
2023-11-26T22:47:38.996Z,79.40
2023-11-26T22:50:08.350Z,79.76
2023-11-26T22:52:36.646Z,79.87
2023-11-26T22:55:04.854Z,79.30
2023-11-26T22:57:31.964Z,79.86
2023-11-26T22:59:59.348Z,79.81
2023-11-26T23:02:26.383Z,79.91
2023-11-26T23:04:55.303Z,79.01
2023-11-26T23:07:22.496Z,79.47
2023-11-26T23:09:51.813Z,79.35
2023-11-26T23:12:19.001Z,79.54
2023-11-26T23:14:45.931Z,79.14
2023-11-26T23:17:15.992Z,80.61
2023-11-26T23:19:43.103Z,80.72
2023-11-26T23:22:10.011Z,80.43
2023-11-26T23:24:37.249Z,81.16
2023-11-26T23:27:05.651Z,81.25
2023-11-26T23:29:33.109Z,80.78
2023-11-26T23:32:00.017Z,80.86
2023-11-26T23:34:27.774Z,81.64
2023-11-26T23:36:54.812Z,81.39
2023-11-26T23:39:22.462Z,81.52
2023-11-26T23:41:49.583Z,81.91
2023-11-26T23:44:18.088Z,81.84
2023-11-26T23:46:45.413Z,80.99
2023-11-26T23:49:13.830Z,81.18
2023-11-26T23:51:41.009Z,81.88
2023-11-26T23:54:08.048Z,81.79
2023-11-26T23:56:34.924Z,81.63
2023-11-26T23:59:03.634Z,80.96
